Whitfield, Mississippi
Current Conditions -  °F | °C
As of 12:54 PM on Thursday 23 Oct 2014 (Local Time) from KJAN Reporting Station
Broken Clouds Broken Clouds  
Wind Chill: 66°   Ceiling: 25000
Heat Index: 66°   Visibility: 10mi
Dew Point: 44°   Wind: 0mph
Humidity: 45%   Direction: NA
Pressure: 30.13"   Gusts: NA
Location:  32.24°N, 90.07°W
Report Text: KJAN 231754Z 00000KT 10SM BKN250 19/07 A3013 RMK AO2 SLP201 T01890067 10194 20056 58018
Loading
Personal Weather Stations






























Interactive Weather Map
Tropical Storm Tracking
New forecast layout! Learn more

10-Day Weather Forecast

Advertisements
Track Severe Weather on mobile